createdAt,value
2018-09-10T00:00:38.582Z,17.31
2018-09-10T00:05:42.063Z,17.24
2018-09-10T00:10:45.386Z,17.21
2018-09-10T00:15:48.698Z,17.18
2018-09-10T00:20:52.061Z,17.12
2018-09-10T00:25:55.391Z,16.96
2018-09-10T00:30:58.792Z,16.88
2018-09-10T00:36:02.119Z,16.78
2018-09-10T00:41:05.461Z,16.75
2018-09-10T00:46:08.836Z,16.79
2018-09-10T00:51:12.175Z,16.75
2018-09-10T00:56:15.497Z,16.75
2018-09-10T01:01:18.841Z,16.67
2018-09-10T01:06:22.158Z,16.55
2018-09-10T01:11:25.504Z,16.47
2018-09-10T01:16:28.843Z,16.43
2018-09-10T01:21:32.183Z,16.39
2018-09-10T01:26:35.524Z,16.21
2018-09-10T01:31:38.844Z,16.21
2018-09-10T01:36:42.168Z,16.11
2018-09-10T01:41:45.532Z,16.07
2018-09-10T01:46:48.853Z,16.03
2018-09-10T01:51:52.234Z,15.97
2018-09-10T01:56:55.615Z,15.97
2018-09-10T02:01:58.922Z,15.97
2018-09-10T02:07:02.270Z,15.99
2018-09-10T02:12:06.361Z,15.96
2018-09-10T02:17:09.721Z,15.95
2018-09-10T02:22:13.094Z,15.84
2018-09-10T02:27:16.462Z,15.70
2018-09-10T02:32:19.807Z,15.68
2018-09-10T02:37:23.122Z,15.69
2018-09-10T02:42:26.451Z,15.63
2018-09-10T02:47:29.771Z,15.61
2018-09-10T02:52:33.103Z,15.58
2018-09-10T02:57:36.430Z,15.54
2018-09-10T03:02:40.488Z,15.54
2018-09-10T03:07:43.816Z,15.51
2018-09-10T03:12:47.143Z,15.40
2018-09-10T03:17:50.839Z,15.36
2018-09-10T03:22:54.199Z,15.35
2018-09-10T03:27:57.518Z,15.26
2018-09-10T03:33:00.858Z,15.23
2018-09-10T03:38:04.186Z,15.23
2018-09-10T03:43:07.540Z,15.23
2018-09-10T03:48:10.907Z,15.22
2018-09-10T03:53:14.232Z,15.18
2018-09-10T03:58:17.567Z,15.16
2018-09-10T04:03:20.911Z,15.13
2018-09-10T04:08:24.268Z,15.11
2018-09-10T04:13:27.613Z,15.18
2018-09-10T04:18:30.962Z,15.17
2018-09-10T04:23:34.291Z,15.14
2018-09-10T04:28:37.626Z,15.06
2018-09-10T04:33:40.963Z,14.95
2018-09-10T04:38:44.308Z,14.93
2018-09-10T04:43:47.708Z,15.02
2018-09-10T04:48:51.019Z,14.98
2018-09-10T04:53:54.391Z,15.00
2018-09-10T04:58:57.736Z,15.11
2018-09-10T05:04:01.067Z,15.16
2018-09-10T05:09:05.686Z,15.26
2018-09-10T05:14:09.218Z,15.30
2018-09-10T05:19:12.609Z,15.36
2018-09-10T05:24:15.911Z,15.43
2018-09-10T05:29:19.223Z,15.43
2018-09-10T05:34:22.547Z,15.47
2018-09-10T05:39:25.919Z,15.54
2018-09-10T05:44:29.246Z,15.60
2018-09-10T05:49:32.595Z,15.63
2018-09-10T05:54:35.919Z,15.64
2018-09-10T05:59:39.431Z,15.66
2018-09-10T06:04:43.087Z,15.75
2018-09-10T06:09:46.481Z,15.78
2018-09-10T06:14:49.775Z,15.86
2018-09-10T06:19:53.143Z,15.97
2018-09-10T06:24:56.479Z,16.06
2018-09-10T06:29:59.799Z,16.16
2018-09-10T06:35:03.159Z,16.32
2018-09-10T06:40:06.572Z,16.45
2018-09-10T06:45:09.924Z,16.58
2018-09-10T06:50:13.253Z,16.72
2018-09-10T06:55:16.575Z,16.88
2018-09-10T07:00:21.452Z,17.00
2018-09-10T07:05:24.803Z,17.15
2018-09-10T07:10:28.355Z,17.29
2018-09-10T07:15:33.327Z,17.43
2018-09-10T07:20:36.698Z,17.56
2018-09-10T07:25:40.113Z,17.70
2018-09-10T07:30:43.475Z,17.85
2018-09-10T07:35:46.807Z,18.05
2018-09-10T07:40:50.156Z,18.29
2018-09-10T07:45:54.466Z,18.53
2018-09-10T07:50:57.800Z,18.86
2018-09-10T07:56:01.143Z,19.13
2018-09-10T08:01:04.487Z,19.39
2018-09-10T08:06:07.811Z,19.52
2018-09-10T08:11:11.171Z,19.79
2018-09-10T08:16:14.526Z,20.09
2018-09-10T08:21:17.883Z,20.44
2018-09-10T08:26:21.231Z,20.81
2018-09-10T08:31:24.548Z,21.06
2018-09-10T08:36:28.011Z,21.21
2018-09-10T08:41:31.331Z,21.39
2018-09-10T08:46:34.692Z,21.53
2018-09-10T08:51:38.047Z,21.69
2018-09-10T08:56:41.376Z,21.81
2018-09-10T09:01:44.801Z,21.83
2018-09-10T09:06:48.167Z,21.95
2018-09-10T09:11:51.539Z,22.01
2018-09-10T09:16:54.857Z,22.02
2018-09-10T09:21:58.184Z,22.08
2018-09-10T09:27:01.507Z,22.09
2018-09-10T09:32:04.873Z,22.13
2018-09-10T09:37:13.451Z,22.16
2018-09-10T09:42:22.171Z,22.21
2018-09-10T09:47:25.524Z,22.27
2018-09-10T09:52:28.885Z,22.50
2018-09-10T09:57:32.195Z,22.87
2018-09-10T10:02:40.895Z,23.25
2018-09-10T10:07:44.255Z,23.56
2018-09-10T10:12:47.566Z,23.72
2018-09-10T10:17:50.894Z,23.80
2018-09-10T10:22:54.255Z,23.84
2018-09-10T10:27:57.543Z,23.79
2018-09-10T10:33:00.859Z,23.73
2018-09-10T10:38:04.198Z,23.58
2018-09-10T10:43:07.528Z,23.55
2018-09-10T10:48:10.855Z,23.64
2018-09-10T10:53:14.175Z,24.06
2018-09-10T10:58:17.509Z,24.34
2018-09-10T11:03:21.146Z,24.45
2018-09-10T11:08:24.531Z,24.56
2018-09-10T11:13:27.826Z,24.71
2018-09-10T11:18:31.142Z,24.55
2018-09-10T11:23:34.463Z,24.63
2018-09-10T11:28:37.765Z,24.45
2018-09-10T11:33:41.127Z,24.39
2018-09-10T11:38:44.469Z,24.49
2018-09-10T11:43:47.786Z,24.93
2018-09-10T11:48:51.088Z,31.57
2018-09-10T11:53:54.423Z,39.70
2018-09-10T11:58:57.735Z,38.27
2018-09-10T12:04:01.052Z,35.90
2018-09-10T12:09:05.103Z,31.50
2018-09-10T12:14:08.438Z,33.54
2018-09-10T12:19:11.747Z,30.15
2018-09-10T12:24:15.041Z,31.89
2018-09-10T12:29:18.571Z,41.04
2018-09-10T12:34:21.867Z,42.87
2018-09-10T12:39:25.209Z,42.84
2018-09-10T12:44:28.523Z,45.69
2018-09-10T12:49:32.470Z,44.18
2018-09-10T12:54:35.836Z,40.40
2018-09-10T12:59:39.147Z,40.62
2018-09-10T13:04:42.455Z,40.64
2018-09-10T13:09:45.806Z,40.74
2018-09-10T13:14:49.110Z,38.91
2018-09-10T13:19:52.434Z,37.67
2018-09-10T13:24:55.743Z,33.92
2018-09-10T13:29:59.110Z,31.74
2018-09-10T13:35:02.479Z,30.66
2018-09-10T13:40:06.639Z,30.32
2018-09-10T13:45:12.129Z,29.28
2018-09-10T13:50:15.420Z,28.30
2018-09-10T13:55:18.726Z,27.77
2018-09-10T14:00:22.068Z,27.38
2018-09-10T14:05:25.371Z,26.97
2018-09-10T14:10:28.709Z,26.46
2018-09-10T14:15:32.969Z,26.20
2018-09-10T14:20:36.374Z,26.19
2018-09-10T14:25:39.703Z,26.38
2018-09-10T14:30:43.751Z,26.30
2018-09-10T14:35:47.395Z,26.26
2018-09-10T14:40:50.747Z,26.50
2018-09-10T14:45:54.142Z,26.74
2018-09-10T14:50:57.466Z,26.65
2018-09-10T14:56:00.811Z,26.42
2018-09-10T15:01:04.179Z,26.13
2018-09-10T15:06:07.539Z,25.93
2018-09-10T15:11:10.874Z,25.93
2018-09-10T15:16:14.203Z,25.88
2018-09-10T15:21:17.623Z,25.82
2018-09-10T15:26:21.157Z,25.74
2018-09-10T15:31:24.479Z,25.75
2018-09-10T15:36:27.843Z,25.81
2018-09-10T15:41:31.194Z,25.81
2018-09-10T15:46:34.879Z,25.78
2018-09-10T15:51:38.311Z,25.81
2018-09-10T15:56:41.902Z,25.85
2018-09-10T16:01:45.281Z,25.62
2018-09-10T16:06:48.603Z,25.47
2018-09-10T16:11:51.909Z,25.37
2018-09-10T16:16:55.286Z,25.27
2018-09-10T16:21:58.550Z,25.20
2018-09-10T16:27:01.850Z,25.07
2018-09-10T16:32:05.159Z,24.94
2018-09-10T16:37:08.544Z,24.84
2018-09-10T16:42:11.868Z,24.75
2018-09-10T16:47:15.195Z,24.63
2018-09-10T16:52:18.567Z,24.51
2018-09-10T16:57:21.890Z,24.41
2018-09-10T17:02:25.200Z,24.27
2018-09-10T17:07:28.656Z,24.15
2018-09-10T17:12:32.001Z,24.06
2018-09-10T17:17:35.331Z,23.99
2018-09-10T17:22:38.838Z,23.92
2018-09-10T17:27:42.061Z,23.88
2018-09-10T17:32:45.394Z,23.82
2018-09-10T17:37:48.698Z,23.76
2018-09-10T17:42:52.018Z,23.73
2018-09-10T17:47:56.153Z,23.66
2018-09-10T17:52:59.572Z,23.62
2018-09-10T17:58:02.977Z,23.58
2018-09-10T18:03:07.058Z,23.55
2018-09-10T18:08:17.311Z,23.52
2018-09-10T18:13:20.775Z,23.51
2018-09-10T18:18:24.195Z,23.51
2018-09-10T18:23:27.637Z,23.46
2018-09-10T18:28:31.140Z,23.38
2018-09-10T18:33:34.474Z,23.33
2018-09-10T18:38:37.819Z,23.21
2018-09-10T18:43:41.471Z,23.10
2018-09-10T18:48:44.979Z,23.00
2018-09-10T18:53:48.306Z,22.89
2018-09-10T18:58:51.692Z,22.75
2018-09-10T19:03:55.101Z,22.65
2018-09-10T19:08:58.487Z,22.62
2018-09-10T19:14:02.437Z,22.55
2018-09-10T19:19:06.079Z,22.51
2018-09-10T19:24:09.962Z,22.48
2018-09-10T19:29:14.068Z,22.44
2018-09-10T19:34:17.498Z,22.40
2018-09-10T19:39:21.608Z,22.33
2018-09-10T19:44:25.294Z,22.27
2018-09-10T19:49:28.634Z,22.23
2018-09-10T19:54:31.982Z,22.20
2018-09-10T19:59:35.331Z,22.18
2018-09-10T20:04:39.514Z,22.12
2018-09-10T20:09:43.425Z,22.10
2018-09-10T20:14:46.754Z,22.06
2018-09-10T20:19:50.184Z,22.02
2018-09-10T20:24:53.665Z,21.97
2018-09-10T20:29:57.128Z,21.93
2018-09-10T20:35:00.478Z,21.95
2018-09-10T20:40:04.019Z,21.91
2018-09-10T20:45:08.808Z,21.87
2018-09-10T20:50:12.151Z,21.80
2018-09-10T20:55:15.495Z,21.73
2018-09-10T21:00:19.356Z,21.65
2018-09-10T21:05:22.806Z,21.55
2018-09-10T21:10:26.319Z,21.40
2018-09-10T21:15:29.757Z,21.29
2018-09-10T21:20:33.151Z,21.30
2018-09-10T21:25:36.749Z,21.27
2018-09-10T21:30:40.114Z,21.25
2018-09-10T21:35:43.446Z,21.21
2018-09-10T21:40:46.840Z,21.12
2018-09-10T21:45:50.201Z,21.05
2018-09-10T21:50:53.652Z,20.94
2018-09-10T21:55:57.027Z,20.84
2018-09-10T22:01:01.144Z,20.80
2018-09-10T22:06:04.645Z,20.86
2018-09-10T22:11:08.208Z,20.89
2018-09-10T22:16:11.767Z,20.86
2018-09-10T22:21:15.199Z,20.78
2018-09-10T22:26:18.732Z,20.76
2018-09-10T22:31:22.058Z,20.73
2018-09-10T22:36:25.486Z,20.71
2018-09-10T22:41:28.939Z,20.67
2018-09-10T22:46:32.412Z,20.63
2018-09-10T22:51:36.227Z,20.61
2018-09-10T22:56:39.586Z,20.53
2018-09-10T23:01:42.911Z,20.54
2018-09-10T23:06:46.246Z,20.56
2018-09-10T23:11:49.563Z,20.49
2018-09-10T23:16:52.897Z,20.49
2018-09-10T23:21:56.226Z,20.50
2018-09-10T23:26:59.576Z,20.50
2018-09-10T23:32:02.928Z,20.46
2018-09-10T23:37:06.270Z,20.45
2018-09-10T23:42:09.788Z,20.44
2018-09-10T23:47:13.107Z,20.41
2018-09-10T23:52:16.443Z,20.39
2018-09-10T23:57:19.771Z,20.35
